sensor_id;sensor_type;location;lat;lon;timestamp;P1;durP1;ratioP1;P2;durP2;ratioP2
50906;SDS011;36882;27.680;85.304;2022-08-03T03:00:34;28.85;;;18.95;;
50906;SDS011;36882;27.680;85.304;2022-08-03T03:03:05;24.45;;;18.42;;
50906;SDS011;36882;27.680;85.304;2022-08-03T03:05:36;19.48;;;17.45;;
50906;SDS011;36882;27.680;85.304;2022-08-03T03:08:22;18.73;;;16.73;;
50906;SDS011;36882;27.680;85.304;2022-08-03T03:10:55;19.40;;;16.48;;
50906;SDS011;36882;27.680;85.304;2022-08-03T03:13:27;19.73;;;16.98;;
50906;SDS011;36882;27.680;85.304;2022-08-03T03:15:59;21.17;;;15.30;;
50906;SDS011;36882;27.680;85.304;2022-08-03T03:18:30;21.88;;;14.70;;
50906;SDS011;36882;27.680;85.304;2022-08-03T03:21:01;18.45;;;13.82;;
50906;SDS011;36882;27.680;85.304;2022-08-03T03:23:33;20.23;;;18.17;;
50906;SDS011;36882;27.680;85.304;2022-08-03T03:26:05;23.00;;;14.25;;
50906;SDS011;36882;27.680;85.304;2022-08-03T03:28:37;17.20;;;15.35;;
50906;SDS011;36882;27.680;85.304;2022-08-03T03:31:08;25.88;;;18.95;;
50906;SDS011;36882;27.680;85.304;2022-08-03T03:33:38;23.70;;;19.73;;
50906;SDS011;36882;27.680;85.304;2022-08-03T03:36:09;28.80;;;14.27;;
50906;SDS011;36882;27.680;85.304;2022-08-03T03:38:39;22.27;;;13.30;;
50906;SDS011;36882;27.680;85.304;2022-08-03T03:41:10;20.58;;;11.85;;
50906;SDS011;36882;27.680;85.304;2022-08-03T03:43:41;22.95;;;13.07;;
50906;SDS011;36882;27.680;85.304;2022-08-03T03:46:15;13.95;;;11.15;;
50906;SDS011;36882;27.680;85.304;2022-08-03T03:48:45;20.88;;;10.93;;
50906;SDS011;36882;27.680;85.304;2022-08-03T03:51:16;18.52;;;14.10;;
50906;SDS011;36882;27.680;85.304;2022-08-03T03:53:58;17.45;;;12.93;;
50906;SDS011;36882;27.680;85.304;2022-08-03T03:56:29;26.60;;;15.90;;
50906;SDS011;36882;27.680;85.304;2022-08-03T03:58:59;41.08;;;26.02;;
50906;SDS011;36882;27.680;85.304;2022-08-03T04:01:31;23.63;;;12.27;;
50906;SDS011;36882;27.680;85.304;2022-08-03T04:04:02;9.82;;;8.82;;
50906;SDS011;36882;27.680;85.304;2022-08-03T04:06:52;13.50;;;8.18;;
50906;SDS011;36882;27.680;85.304;2022-08-03T04:09:41;9.98;;;7.53;;
50906;SDS011;36882;27.680;85.304;2022-08-03T04:12:41;14.13;;;8.13;;
50906;SDS011;36882;27.680;85.304;2022-08-03T04:15:18;13.75;;;9.85;;
50906;SDS011;36882;27.680;85.304;2022-08-03T04:17:49;13.10;;;8.88;;
50906;SDS011;36882;27.680;85.304;2022-08-03T04:20:21;13.65;;;9.73;;
50906;SDS011;36882;27.680;85.304;2022-08-03T04:22:52;18.45;;;10.27;;
50906;SDS011;36882;27.680;85.304;2022-08-03T04:25:23;16.85;;;6.93;;
50906;SDS011;36882;27.680;85.304;2022-08-03T04:27:56;9.45;;;8.00;;
50906;SDS011;36882;27.680;85.304;2022-08-03T04:30:49;12.48;;;8.88;;
50906;SDS011;36882;27.680;85.304;2022-08-03T04:33:22;15.25;;;8.50;;
50906;SDS011;36882;27.680;85.304;2022-08-03T04:35:56;15.77;;;9.73;;
50906;SDS011;36882;27.680;85.304;2022-08-03T04:38:35;13.82;;;10.98;;
50906;SDS011;36882;27.680;85.304;2022-08-03T04:41:06;13.23;;;10.15;;
50906;SDS011;36882;27.680;85.304;2022-08-03T04:43:36;14.10;;;8.70;;
50906;SDS011;36882;27.680;85.304;2022-08-03T04:46:09;21.60;;;10.18;;
50906;SDS011;36882;27.680;85.304;2022-08-03T04:48:40;12.75;;;9.07;;
50906;SDS011;36882;27.680;85.304;2022-08-03T04:51:10;16.70;;;10.23;;
50906;SDS011;36882;27.680;85.304;2022-08-03T04:53:42;20.40;;;11.20;;
50906;SDS011;36882;27.680;85.304;2022-08-03T04:56:12;17.88;;;12.32;;
50906;SDS011;36882;27.680;85.304;2022-08-03T04:58:44;16.23;;;10.35;;
50906;SDS011;36882;27.680;85.304;2022-08-03T05:01:14;11.88;;;9.10;;
50906;SDS011;36882;27.680;85.304;2022-08-03T05:03:45;15.52;;;10.38;;
50906;SDS011;36882;27.680;85.304;2022-08-03T05:06:16;14.32;;;10.05;;
50906;SDS011;36882;27.680;85.304;2022-08-03T05:08:51;13.73;;;10.10;;
50906;SDS011;36882;27.680;85.304;2022-08-03T05:11:22;13.75;;;9.85;;
50906;SDS011;36882;27.680;85.304;2022-08-03T05:13:52;20.65;;;11.45;;
50906;SDS011;36882;27.680;85.304;2022-08-03T05:16:22;15.00;;;10.38;;
50906;SDS011;36882;27.680;85.304;2022-08-03T05:18:53;11.80;;;8.75;;
50906;SDS011;36882;27.680;85.304;2022-08-03T05:21:23;14.45;;;7.90;;
50906;SDS011;36882;27.680;85.304;2022-08-03T05:24:14;9.38;;;7.80;;
50906;SDS011;36882;27.680;85.304;2022-08-03T05:26:44;19.85;;;10.48;;
50906;SDS011;36882;27.680;85.304;2022-08-03T05:29:15;14.55;;;7.85;;
50906;SDS011;36882;27.680;85.304;2022-08-03T05:31:45;14.50;;;7.88;;
50906;SDS011;36882;27.680;85.304;2022-08-03T05:34:15;12.40;;;6.50;;
50906;SDS011;36882;27.680;85.304;2022-08-03T05:36:46;9.27;;;5.22;;
50906;SDS011;36882;27.680;85.304;2022-08-03T05:39:16;10.68;;;5.70;;
50906;SDS011;36882;27.680;85.304;2022-08-03T05:41:46;7.22;;;4.25;;
50906;SDS011;36882;27.680;85.304;2022-08-03T05:44:17;7.03;;;3.70;;
50906;SDS011;36882;27.680;85.304;2022-08-03T05:46:47;6.40;;;4.82;;
50906;SDS011;36882;27.680;85.304;2022-08-03T05:49:17;21.00;;;7.90;;
50906;SDS011;36882;27.680;85.304;2022-08-03T05:51:48;15.23;;;6.90;;
50906;SDS011;36882;27.680;85.304;2022-08-03T05:54:36;17.83;;;8.15;;
50906;SDS011;36882;27.680;85.304;2022-08-03T05:57:24;17.48;;;6.93;;
50906;SDS011;36882;27.680;85.304;2022-08-03T05:59:55;16.05;;;6.35;;
50906;SDS011;36882;27.680;85.304;2022-08-03T06:02:26;19.05;;;7.97;;
50906;SDS011;36882;27.680;85.304;2022-08-03T06:04:56;10.13;;;7.03;;
50906;SDS011;36882;27.680;85.304;2022-08-03T06:07:26;25.08;;;7.40;;
50906;SDS011;36882;27.680;85.304;2022-08-03T06:09:57;13.95;;;6.32;;
50906;SDS011;36882;27.680;85.304;2022-08-03T06:12:50;7.45;;;5.50;;
50906;SDS011;36882;27.680;85.304;2022-08-03T06:15:20;14.40;;;6.63;;
50906;SDS011;36882;27.680;85.304;2022-08-03T06:17:51;11.48;;;5.60;;
50906;SDS011;36882;27.680;85.304;2022-08-03T06:20:27;18.73;;;6.45;;
50906;SDS011;36882;27.680;85.304;2022-08-03T06:22:58;14.05;;;6.22;;
50906;SDS011;36882;27.680;85.304;2022-08-03T06:25:28;15.18;;;5.63;;
50906;SDS011;36882;27.680;85.304;2022-08-03T06:27:59;10.52;;;5.47;;
50906;SDS011;36882;27.680;85.304;2022-08-03T06:30:29;9.75;;;5.57;;
50906;SDS011;36882;27.680;85.304;2022-08-03T06:33:00;9.75;;;5.60;;
50906;SDS011;36882;27.680;85.304;2022-08-03T06:35:34;9.35;;;4.95;;
50906;SDS011;36882;27.680;85.304;2022-08-03T06:38:08;9.93;;;5.10;;
50906;SDS011;36882;27.680;85.304;2022-08-03T06:40:38;10.07;;;5.00;;
50906;SDS011;36882;27.680;85.304;2022-08-03T06:43:08;10.23;;;6.35;;
50906;SDS011;36882;27.680;85.304;2022-08-03T06:45:45;8.68;;;4.30;;
50906;SDS011;36882;27.680;85.304;2022-08-03T06:48:19;11.27;;;4.80;;
50906;SDS011;36882;27.680;85.304;2022-08-03T06:50:50;14.93;;;6.50;;
50906;SDS011;36882;27.680;85.304;2022-08-03T06:53:21;17.77;;;7.78;;
50906;SDS011;36882;27.680;85.304;2022-08-03T06:55:51;9.90;;;5.28;;
50906;SDS011;36882;27.680;85.304;2022-08-03T06:58:22;11.32;;;5.50;;
50906;SDS011;36882;27.680;85.304;2022-08-03T07:00:52;10.70;;;4.85;;
50906;SDS011;36882;27.680;85.304;2022-08-03T07:03:22;9.43;;;4.82;;
50906;SDS011;36882;27.680;85.304;2022-08-03T07:05:53;8.65;;;4.80;;
50906;SDS011;36882;27.680;85.304;2022-08-03T07:08:24;18.17;;;5.40;;
50906;SDS011;36882;27.680;85.304;2022-08-03T07:11:00;11.95;;;6.03;;
50906;SDS011;36882;27.680;85.304;2022-08-03T07:13:30;10.90;;;4.88;;
50906;SDS011;36882;27.680;85.304;2022-08-03T07:16:00;17.80;;;5.60;;
50906;SDS011;36882;27.680;85.304;2022-08-03T07:18:31;15.80;;;6.75;;
50906;SDS011;36882;27.680;85.304;2022-08-03T07:21:01;11.68;;;5.45;;
50906;SDS011;36882;27.680;85.304;2022-08-03T07:23:34;10.57;;;5.00;;
50906;SDS011;36882;27.680;85.304;2022-08-03T07:26:06;6.80;;;5.60;;
50906;SDS011;36882;27.680;85.304;2022-08-03T07:28:39;12.90;;;5.53;;
50906;SDS011;36882;27.680;85.304;2022-08-03T07:31:18;14.63;;;6.50;;
50906;SDS011;36882;27.680;85.304;2022-08-03T07:33:48;14.70;;;5.93;;
50906;SDS011;36882;27.680;85.304;2022-08-03T07:36:18;14.60;;;6.13;;
50906;SDS011;36882;27.680;85.304;2022-08-03T07:38:49;16.05;;;5.70;;
50906;SDS011;36882;27.680;85.304;2022-08-03T07:41:19;12.15;;;5.90;;
50906;SDS011;36882;27.680;85.304;2022-08-03T07:43:50;14.63;;;5.90;;
50906;SDS011;36882;27.680;85.304;2022-08-03T07:46:20;16.73;;;5.88;;
50906;SDS011;36882;27.680;85.304;2022-08-03T07:48:52;13.02;;;6.93;;
50906;SDS011;36882;27.680;85.304;2022-08-03T07:51:22;9.75;;;6.28;;
50906;SDS011;36882;27.680;85.304;2022-08-03T07:53:54;17.52;;;6.28;;
50906;SDS011;36882;27.680;85.304;2022-08-03T07:56:25;12.30;;;6.22;;
50906;SDS011;36882;27.680;85.304;2022-08-03T07:58:56;9.80;;;5.53;;
50906;SDS011;36882;27.680;85.304;2022-08-03T08:01:27;8.15;;;5.80;;
50906;SDS011;36882;27.680;85.304;2022-08-03T08:04:03;10.40;;;5.85;;
50906;SDS011;36882;27.680;85.304;2022-08-03T08:06:33;14.45;;;5.45;;
50906;SDS011;36882;27.680;85.304;2022-08-03T08:09:05;17.00;;;5.60;;
50906;SDS011;36882;27.680;85.304;2022-08-03T08:11:35;8.35;;;4.57;;
50906;SDS011;36882;27.680;85.304;2022-08-03T08:14:06;9.00;;;4.82;;
50906;SDS011;36882;27.680;85.304;2022-08-03T08:16:37;10.30;;;5.65;;
50906;SDS011;36882;27.680;85.304;2022-08-03T08:19:08;12.63;;;5.95;;
50906;SDS011;36882;27.680;85.304;2022-08-03T08:21:39;13.80;;;5.80;;
50906;SDS011;36882;27.680;85.304;2022-08-03T08:24:28;15.80;;;6.03;;
50906;SDS011;36882;27.680;85.304;2022-08-03T08:27:00;24.92;;;6.82;;
50906;SDS011;36882;27.680;85.304;2022-08-03T08:29:30;18.27;;;5.50;;
50906;SDS011;36882;27.680;85.304;2022-08-03T08:32:13;16.48;;;7.20;;
50906;SDS011;36882;27.680;85.304;2022-08-03T08:34:44;13.18;;;6.70;;
50906;SDS011;36882;27.680;85.304;2022-08-03T08:37:15;9.23;;;6.85;;
50906;SDS011;36882;27.680;85.304;2022-08-03T08:39:46;14.90;;;6.57;;
50906;SDS011;36882;27.680;85.304;2022-08-03T08:42:17;10.77;;;5.88;;
50906;SDS011;36882;27.680;85.304;2022-08-03T08:44:49;18.58;;;6.45;;
50906;SDS011;36882;27.680;85.304;2022-08-03T08:47:23;15.90;;;7.43;;
50906;SDS011;36882;27.680;85.304;2022-08-03T08:50:22;12.90;;;6.55;;
50906;SDS011;36882;27.680;85.304;2022-08-03T08:52:54;12.75;;;5.70;;
50906;SDS011;36882;27.680;85.304;2022-08-03T08:55:25;14.07;;;7.10;;
50906;SDS011;36882;27.680;85.304;2022-08-03T08:58:16;9.35;;;6.40;;
50906;SDS011;36882;27.680;85.304;2022-08-03T09:00:48;12.27;;;7.30;;
50906;SDS011;36882;27.680;85.304;2022-08-03T09:03:20;13.25;;;7.05;;
50906;SDS011;36882;27.680;85.304;2022-08-03T09:05:57;13.07;;;6.35;;
50906;SDS011;36882;27.680;85.304;2022-08-03T09:08:29;16.67;;;7.80;;
50906;SDS011;36882;27.680;85.304;2022-08-03T09:11:00;12.32;;;7.30;;
50906;SDS011;36882;27.680;85.304;2022-08-03T09:13:30;13.20;;;6.82;;
50906;SDS011;36882;27.680;85.304;2022-08-03T09:16:14;11.82;;;6.30;;
50906;SDS011;36882;27.680;85.304;2022-08-03T09:18:46;14.18;;;5.88;;
50906;SDS011;36882;27.680;85.304;2022-08-03T09:21:19;8.75;;;4.90;;
50906;SDS011;36882;27.680;85.304;2022-08-03T09:23:58;10.45;;;5.32;;
50906;SDS011;36882;27.680;85.304;2022-08-03T09:26:32;7.38;;;5.45;;
50906;SDS011;36882;27.680;85.304;2022-08-03T09:29:07;12.30;;;6.72;;
50906;SDS011;36882;27.680;85.304;2022-08-03T09:31:42;12.00;;;7.47;;
50906;SDS011;36882;27.680;85.304;2022-08-03T09:34:14;10.77;;;5.95;;
50906;SDS011;36882;27.680;85.304;2022-08-03T09:36:47;7.65;;;5.00;;
50906;SDS011;36882;27.680;85.304;2022-08-03T09:39:19;6.38;;;4.78;;
50906;SDS011;36882;27.680;85.304;2022-08-03T09:44:50;16.63;;;6.97;;
50906;SDS011;36882;27.680;85.304;2022-08-03T09:50:00;10.32;;;6.43;;
50906;SDS011;36882;27.680;85.304;2022-08-03T09:52:32;8.93;;;6.43;;
50906;SDS011;36882;27.680;85.304;2022-08-03T09:55:14;12.35;;;6.30;;
50906;SDS011;36882;27.680;85.304;2022-08-03T09:58:08;13.25;;;6.97;;
50906;SDS011;36882;27.680;85.304;2022-08-03T10:00:57;13.48;;;7.40;;
50906;SDS011;36882;27.680;85.304;2022-08-03T10:05:58;18.58;;;7.25;;
50906;SDS011;36882;27.680;85.304;2022-08-03T10:08:28;19.08;;;8.10;;
50906;SDS011;36882;27.680;85.304;2022-08-03T10:11:00;10.80;;;7.30;;
50906;SDS011;36882;27.680;85.304;2022-08-03T10:13:30;9.55;;;5.90;;
50906;SDS011;36882;27.680;85.304;2022-08-03T10:16:00;15.07;;;8.45;;
50906;SDS011;36882;27.680;85.304;2022-08-03T10:18:50;13.30;;;7.63;;
50906;SDS011;36882;27.680;85.304;2022-08-03T10:21:21;12.00;;;7.30;;
50906;SDS011;36882;27.680;85.304;2022-08-03T10:23:52;10.85;;;7.93;;
50906;SDS011;36882;27.680;85.304;2022-08-03T10:26:23;10.60;;;6.88;;
50906;SDS011;36882;27.680;85.304;2022-08-03T10:28:54;12.25;;;6.95;;
50906;SDS011;36882;27.680;85.304;2022-08-03T10:31:29;14.00;;;7.13;;
50906;SDS011;36882;27.680;85.304;2022-08-03T10:34:01;10.23;;;7.07;;
50906;SDS011;36882;27.680;85.304;2022-08-03T10:36:34;12.55;;;6.82;;
50906;SDS011;36882;27.680;85.304;2022-08-03T10:39:06;12.88;;;8.57;;
50906;SDS011;36882;27.680;85.304;2022-08-03T10:41:42;14.10;;;8.43;;
50906;SDS011;36882;27.680;85.304;2022-08-03T10:44:18;11.35;;;7.32;;
50906;SDS011;36882;27.680;85.304;2022-08-03T10:46:48;8.80;;;6.97;;
50906;SDS011;36882;27.680;85.304;2022-08-03T10:49:19;10.75;;;6.80;;
50906;SDS011;36882;27.680;85.304;2022-08-03T10:52:01;8.57;;;6.97;;
50906;SDS011;36882;27.680;85.304;2022-08-03T10:54:45;12.25;;;6.93;;
50906;SDS011;36882;27.680;85.304;2022-08-03T11:00:17;10.93;;;6.25;;
50906;SDS011;36882;27.680;85.304;2022-08-03T11:05:41;17.50;;;10.23;;
50906;SDS011;36882;27.680;85.304;2022-08-03T11:11:00;11.27;;;7.68;;
50906;SDS011;36882;27.680;85.304;2022-08-03T11:13:31;10.38;;;7.68;;
50906;SDS011;36882;27.680;85.304;2022-08-03T11:16:03;9.18;;;6.32;;
50906;SDS011;36882;27.680;85.304;2022-08-03T11:19:01;10.02;;;5.25;;
50906;SDS011;36882;27.680;85.304;2022-08-03T11:29:59;11.57;;;6.50;;
50906;SDS011;36882;27.680;85.304;2022-08-03T11:35:15;14.25;;;7.40;;
50906;SDS011;36882;27.680;85.304;2022-08-03T11:43:06;13.40;;;6.78;;
50906;SDS011;36882;27.680;85.304;2022-08-03T11:45:36;13.68;;;6.22;;
50906;SDS011;36882;27.680;85.304;2022-08-03T11:48:14;13.77;;;7.18;;
50906;SDS011;36882;27.680;85.304;2022-08-03T11:50:44;15.38;;;7.68;;
50906;SDS011;36882;27.680;85.304;2022-08-03T11:53:15;19.67;;;7.90;;
50906;SDS011;36882;27.680;85.304;2022-08-03T11:55:46;12.15;;;7.55;;
50906;SDS011;36882;27.680;85.304;2022-08-03T11:58:17;13.13;;;7.80;;
50906;SDS011;36882;27.680;85.304;2022-08-03T12:01:07;18.10;;;8.75;;
50906;SDS011;36882;27.680;85.304;2022-08-03T12:03:40;13.98;;;7.38;;
50906;SDS011;36882;27.680;85.304;2022-08-03T12:06:11;12.32;;;7.25;;
50906;SDS011;36882;27.680;85.304;2022-08-03T12:08:42;15.30;;;7.78;;
50906;SDS011;36882;27.680;85.304;2022-08-03T12:11:13;12.35;;;9.18;;
50906;SDS011;36882;27.680;85.304;2022-08-03T12:13:47;22.67;;;10.15;;
50906;SDS011;36882;27.680;85.304;2022-08-03T12:16:40;39.00;;;10.38;;
50906;SDS011;36882;27.680;85.304;2022-08-03T12:19:16;15.80;;;8.57;;
50906;SDS011;36882;27.680;85.304;2022-08-03T12:21:47;22.65;;;9.75;;
50906;SDS011;36882;27.680;85.304;2022-08-03T12:24:23;20.38;;;10.05;;
50906;SDS011;36882;27.680;85.304;2022-08-03T12:26:56;17.48;;;9.32;;
50906;SDS011;36882;27.680;85.304;2022-08-03T12:29:26;16.02;;;10.07;;
50906;SDS011;36882;27.680;85.304;2022-08-03T12:31:56;15.32;;;10.77;;
50906;SDS011;36882;27.680;85.304;2022-08-03T12:34:45;25.13;;;10.75;;
50906;SDS011;36882;27.680;85.304;2022-08-03T12:37:19;22.00;;;10.23;;
50906;SDS011;36882;27.680;85.304;2022-08-03T12:39:52;24.48;;;10.60;;
50906;SDS011;36882;27.680;85.304;2022-08-03T12:42:32;18.15;;;9.88;;
50906;SDS011;36882;27.680;85.304;2022-08-03T12:48:07;23.00;;;10.85;;
50906;SDS011;36882;27.680;85.304;2022-08-03T12:50:39;26.10;;;11.70;;
50906;SDS011;36882;27.680;85.304;2022-08-03T12:53:09;24.02;;;12.48;;
50906;SDS011;36882;27.680;85.304;2022-08-03T12:55:39;23.90;;;11.25;;
50906;SDS011;36882;27.680;85.304;2022-08-03T12:58:33;17.88;;;12.35;;
50906;SDS011;36882;27.680;85.304;2022-08-03T13:01:05;22.02;;;13.45;;
50906;SDS011;36882;27.680;85.304;2022-08-03T13:03:40;25.70;;;12.75;;
50906;SDS011;36882;27.680;85.304;2022-08-03T13:06:16;23.50;;;13.15;;
50906;SDS011;36882;27.680;85.304;2022-08-03T13:08:48;32.70;;;15.52;;
50906;SDS011;36882;27.680;85.304;2022-08-03T13:11:20;24.17;;;12.88;;
50906;SDS011;36882;27.680;85.304;2022-08-03T13:14:11;26.77;;;14.95;;
50906;SDS011;36882;27.680;85.304;2022-08-03T13:16:46;33.65;;;13.57;;
50906;SDS011;36882;27.680;85.304;2022-08-03T13:19:16;29.33;;;13.30;;
50906;SDS011;36882;27.680;85.304;2022-08-03T13:21:47;33.30;;;14.15;;
50906;SDS011;36882;27.680;85.304;2022-08-03T13:24:28;21.58;;;13.52;;
50906;SDS011;36882;27.680;85.304;2022-08-03T13:26:59;26.25;;;13.77;;
50906;SDS011;36882;27.680;85.304;2022-08-03T13:29:50;22.35;;;13.27;;
50906;SDS011;36882;27.680;85.304;2022-08-03T13:32:23;20.98;;;13.20;;
50906;SDS011;36882;27.680;85.304;2022-08-03T13:34:56;19.70;;;13.70;;
50906;SDS011;36882;27.680;85.304;2022-08-03T13:37:27;28.05;;;14.25;;
50906;SDS011;36882;27.680;85.304;2022-08-03T13:39:57;25.85;;;15.32;;
50906;SDS011;36882;27.680;85.304;2022-08-03T13:42:33;26.15;;;14.82;;
50906;SDS011;36882;27.680;85.304;2022-08-03T13:45:04;27.98;;;14.73;;
50906;SDS011;36882;27.680;85.304;2022-08-03T13:47:39;36.67;;;15.82;;
50906;SDS011;36882;27.680;85.304;2022-08-03T13:50:10;29.02;;;16.73;;
50906;SDS011;36882;27.680;85.304;2022-08-03T13:52:40;26.58;;;15.45;;
50906;SDS011;36882;27.680;85.304;2022-08-03T13:55:11;25.67;;;14.38;;
50906;SDS011;36882;27.680;85.304;2022-08-03T13:57:41;18.95;;;12.75;;
50906;SDS011;36882;27.680;85.304;2022-08-03T14:00:32;18.33;;;11.32;;
50906;SDS011;36882;27.680;85.304;2022-08-03T14:03:02;22.05;;;11.70;;
50906;SDS011;36882;27.680;85.304;2022-08-03T14:05:41;14.65;;;10.00;;
50906;SDS011;36882;27.680;85.304;2022-08-03T14:08:11;23.80;;;10.98;;
50906;SDS011;36882;27.680;85.304;2022-08-03T14:10:42;20.10;;;10.93;;
50906;SDS011;36882;27.680;85.304;2022-08-03T14:13:13;18.90;;;11.82;;
50906;SDS011;36882;27.680;85.304;2022-08-03T14:15:44;22.20;;;13.35;;
50906;SDS011;36882;27.680;85.304;2022-08-03T14:18:20;21.83;;;11.57;;
50906;SDS011;36882;27.680;85.304;2022-08-03T14:20:56;20.00;;;10.35;;
50906;SDS011;36882;27.680;85.304;2022-08-03T14:23:32;17.50;;;9.75;;
50906;SDS011;36882;27.680;85.304;2022-08-03T14:26:02;19.38;;;10.15;;
50906;SDS011;36882;27.680;85.304;2022-08-03T14:28:33;14.20;;;7.78;;
50906;SDS011;36882;27.680;85.304;2022-08-03T14:31:03;9.98;;;7.78;;
50906;SDS011;36882;27.680;85.304;2022-08-03T14:33:53;11.50;;;7.50;;
50906;SDS011;36882;27.680;85.304;2022-08-03T14:36:24;13.65;;;6.85;;
50906;SDS011;36882;27.680;85.304;2022-08-03T14:38:54;13.27;;;7.47;;
50906;SDS011;36882;27.680;85.304;2022-08-03T14:41:27;13.45;;;7.00;;
50906;SDS011;36882;27.680;85.304;2022-08-03T14:43:57;12.23;;;7.00;;
50906;SDS011;36882;27.680;85.304;2022-08-03T14:46:28;12.57;;;7.57;;
50906;SDS011;36882;27.680;85.304;2022-08-03T14:48:58;11.60;;;8.18;;
50906;SDS011;36882;27.680;85.304;2022-08-03T14:51:49;11.63;;;8.20;;
50906;SDS011;36882;27.680;85.304;2022-08-03T14:54:20;13.40;;;8.00;;
50906;SDS011;36882;27.680;85.304;2022-08-03T14:56:50;14.07;;;8.70;;
50906;SDS011;36882;27.680;85.304;2022-08-03T14:59:21;10.50;;;7.00;;
50906;SDS011;36882;27.680;85.304;2022-08-03T15:01:53;13.05;;;7.90;;
50906;SDS011;36882;27.680;85.304;2022-08-03T15:04:29;13.27;;;9.55;;
50906;SDS011;36882;27.680;85.304;2022-08-03T15:06:59;14.82;;;8.45;;
50906;SDS011;36882;27.680;85.304;2022-08-03T15:09:29;14.13;;;9.00;;
50906;SDS011;36882;27.680;85.304;2022-08-03T15:12:00;11.68;;;8.63;;
50906;SDS011;36882;27.680;85.304;2022-08-03T15:14:30;18.00;;;8.77;;
50906;SDS011;36882;27.680;85.304;2022-08-03T15:17:03;16.75;;;8.45;;
50906;SDS011;36882;27.680;85.304;2022-08-03T15:19:34;17.48;;;9.18;;
50906;SDS011;36882;27.680;85.304;2022-08-03T15:22:24;24.98;;;9.07;;
50906;SDS011;36882;27.680;85.304;2022-08-03T15:25:01;12.27;;;8.75;;
50906;SDS011;36882;27.680;85.304;2022-08-03T15:27:52;11.57;;;8.15;;
50906;SDS011;36882;27.680;85.304;2022-08-03T15:30:30;15.68;;;9.75;;
50906;SDS011;36882;27.680;85.304;2022-08-03T15:33:03;28.90;;;9.80;;
50906;SDS011;36882;27.680;85.304;2022-08-03T15:35:34;10.85;;;7.93;;
50906;SDS011;36882;27.680;85.304;2022-08-03T15:38:04;15.63;;;8.55;;
50906;SDS011;36882;27.680;85.304;2022-08-03T15:40:35;12.57;;;7.35;;
50906;SDS011;36882;27.680;85.304;2022-08-03T15:43:06;15.43;;;7.68;;
50906;SDS011;36882;27.680;85.304;2022-08-03T15:45:36;17.52;;;9.18;;
50906;SDS011;36882;27.680;85.304;2022-08-03T15:48:08;28.83;;;9.40;;
50906;SDS011;36882;27.680;85.304;2022-08-03T15:50:38;14.63;;;8.35;;
50906;SDS011;36882;27.680;85.304;2022-08-03T15:53:09;10.43;;;7.65;;
50906;SDS011;36882;27.680;85.304;2022-08-03T15:55:39;11.93;;;8.80;;
50906;SDS011;36882;27.680;85.304;2022-08-03T15:58:09;14.85;;;8.10;;
50906;SDS011;36882;27.680;85.304;2022-08-03T16:01:00;16.23;;;8.73;;
50906;SDS011;36882;27.680;85.304;2022-08-03T16:03:31;12.15;;;8.23;;
50906;SDS011;36882;27.680;85.304;2022-08-03T16:06:05;10.65;;;8.02;;
50906;SDS011;36882;27.680;85.304;2022-08-03T16:08:35;20.45;;;9.13;;
50906;SDS011;36882;27.680;85.304;2022-08-03T16:11:06;18.77;;;7.60;;
50906;SDS011;36882;27.680;85.304;2022-08-03T16:13:36;13.18;;;7.85;;
50906;SDS011;36882;27.680;85.304;2022-08-03T16:16:26;19.02;;;7.35;;
50906;SDS011;36882;27.680;85.304;2022-08-03T16:18:56;12.98;;;7.40;;
50906;SDS011;36882;27.680;85.304;2022-08-03T16:21:31;11.93;;;7.38;;
50906;SDS011;36882;27.680;85.304;2022-08-03T16:24:14;10.68;;;7.80;;
50906;SDS011;36882;27.680;85.304;2022-08-03T16:26:54;14.95;;;8.23;;
50906;SDS011;36882;27.680;85.304;2022-08-03T16:29:26;9.43;;;6.60;;
50906;SDS011;36882;27.680;85.304;2022-08-03T16:31:57;12.98;;;7.65;;
50906;SDS011;36882;27.680;85.304;2022-08-03T16:34:35;11.32;;;6.82;;
50906;SDS011;36882;27.680;85.304;2022-08-03T16:37:06;13.70;;;8.32;;
50906;SDS011;36882;27.680;85.304;2022-08-03T16:39:56;9.80;;;7.22;;
50906;SDS011;36882;27.680;85.304;2022-08-03T16:42:26;10.95;;;7.43;;
50906;SDS011;36882;27.680;85.304;2022-08-03T16:44:56;10.63;;;6.65;;
50906;SDS011;36882;27.680;85.304;2022-08-03T16:47:27;13.25;;;7.78;;
50906;SDS011;36882;27.680;85.304;2022-08-03T16:49:57;10.95;;;7.32;;
50906;SDS011;36882;27.680;85.304;2022-08-03T16:52:34;11.93;;;7.95;;
50906;SDS011;36882;27.680;85.304;2022-08-03T16:55:05;18.08;;;9.02;;
50906;SDS011;36882;27.680;85.304;2022-08-03T16:57:41;14.93;;;7.70;;
50906;SDS011;36882;27.680;85.304;2022-08-03T17:00:26;12.85;;;8.13;;
50906;SDS011;36882;27.680;85.304;2022-08-03T17:03:01;14.43;;;8.43;;
50906;SDS011;36882;27.680;85.304;2022-08-03T17:05:46;17.25;;;8.77;;
50906;SDS011;36882;27.680;85.304;2022-08-03T17:08:18;21.63;;;10.27;;
50906;SDS011;36882;27.680;85.304;2022-08-03T17:10:53;26.98;;;8.65;;
50906;SDS011;36882;27.680;85.304;2022-08-03T17:13:23;16.10;;;9.05;;
50906;SDS011;36882;27.680;85.304;2022-08-03T17:16:06;25.08;;;10.02;;
50906;SDS011;36882;27.680;85.304;2022-08-03T17:18:50;24.13;;;9.95;;
50906;SDS011;36882;27.680;85.304;2022-08-03T17:21:28;17.05;;;9.23;;
50906;SDS011;36882;27.680;85.304;2022-08-03T17:26:41;17.65;;;8.50;;
50906;SDS011;36882;27.680;85.304;2022-08-03T17:29:16;12.77;;;8.65;;
50906;SDS011;36882;27.680;85.304;2022-08-03T17:31:49;16.10;;;7.75;;
50906;SDS011;36882;27.680;85.304;2022-08-03T17:34:20;12.23;;;7.32;;
50906;SDS011;36882;27.680;85.304;2022-08-03T17:36:52;16.65;;;8.38;;
50906;SDS011;36882;27.680;85.304;2022-08-03T17:39:31;16.90;;;9.40;;
50906;SDS011;36882;27.680;85.304;2022-08-03T17:42:22;13.70;;;8.02;;
50906;SDS011;36882;27.680;85.304;2022-08-03T17:44:57;12.88;;;8.02;;
50906;SDS011;36882;27.680;85.304;2022-08-03T17:47:32;10.98;;;8.35;;
50906;SDS011;36882;27.680;85.304;2022-08-03T17:50:12;16.63;;;7.57;;
50906;SDS011;36882;27.680;85.304;2022-08-03T17:52:55;18.63;;;9.00;;
50906;SDS011;36882;27.680;85.304;2022-08-03T17:55:33;12.95;;;8.82;;
50906;SDS011;36882;27.680;85.304;2022-08-03T17:58:38;15.55;;;8.27;;
50906;SDS011;36882;27.680;85.304;2022-08-03T18:01:18;14.05;;;9.50;;
50906;SDS011;36882;27.680;85.304;2022-08-03T18:04:29;11.60;;;8.48;;
50906;SDS011;36882;27.680;85.304;2022-08-03T18:07:06;15.52;;;9.55;;
50906;SDS011;36882;27.680;85.304;2022-08-03T18:09:40;14.57;;;7.88;;
50906;SDS011;36882;27.680;85.304;2022-08-03T18:13:19;13.48;;;8.32;;
50906;SDS011;36882;27.680;85.304;2022-08-03T18:15:45;17.20;;;9.45;;
50906;SDS011;36882;27.680;85.304;2022-08-03T18:18:17;14.27;;;8.75;;
50906;SDS011;36882;27.680;85.304;2022-08-03T18:21:02;15.00;;;9.57;;
50906;SDS011;36882;27.680;85.304;2022-08-03T18:23:42;12.73;;;9.10;;
50906;SDS011;36882;27.680;85.304;2022-08-03T18:26:16;14.20;;;9.60;;
50906;SDS011;36882;27.680;85.304;2022-08-03T18:28:52;15.05;;;9.32;;
50906;SDS011;36882;27.680;85.304;2022-08-03T18:31:23;15.27;;;8.20;;
50906;SDS011;36882;27.680;85.304;2022-08-03T18:34:14;14.32;;;8.65;;
50906;SDS011;36882;27.680;85.304;2022-08-03T18:37:00;16.52;;;9.00;;
50906;SDS011;36882;27.680;85.304;2022-08-03T18:39:34;16.02;;;9.98;;